sensor_id;sensor_type;location;lat;lon;timestamp;temperature;humidity
18694;DHT22;9477;51.414;10.362;2022-10-16T00:01:58;19.80;91.90
18694;DHT22;9477;51.414;10.362;2022-10-16T00:04:02;19.80;91.90
18694;DHT22;9477;51.414;10.362;2022-10-16T00:06:06;19.80;91.90
18694;DHT22;9477;51.414;10.362;2022-10-16T00:08:11;19.70;91.80
18694;DHT22;9477;51.414;10.362;2022-10-16T00:10:14;19.70;91.80
18694;DHT22;9477;51.414;10.362;2022-10-16T00:12:17;19.70;91.90
18694;DHT22;9477;51.414;10.362;2022-10-16T00:14:20;19.60;92.00
18694;DHT22;9477;51.414;10.362;2022-10-16T00:16:23;19.60;92.00
18694;DHT22;9477;51.414;10.362;2022-10-16T00:18:26;19.70;92.10
18694;DHT22;9477;51.414;10.362;2022-10-16T00:20:29;19.70;92.10
18694;DHT22;9477;51.414;10.362;2022-10-16T00:22:34;19.70;92.10
18694;DHT22;9477;51.414;10.362;2022-10-16T00:24:37;19.70;92.10
18694;DHT22;9477;51.414;10.362;2022-10-16T00:26:40;19.70;92.00
18694;DHT22;9477;51.414;10.362;2022-10-16T00:28:45;19.70;92.10
18694;DHT22;9477;51.414;10.362;2022-10-16T00:30:48;19.60;92.00
18694;DHT22;9477;51.414;10.362;2022-10-16T00:32:51;19.60;92.10
18694;DHT22;9477;51.414;10.362;2022-10-16T00:34:54;19.60;92.10
18694;DHT22;9477;51.414;10.362;2022-10-16T00:36:57;19.60;92.10
18694;DHT22;9477;51.414;10.362;2022-10-16T00:39:01;19.70;92.20
18694;DHT22;9477;51.414;10.362;2022-10-16T00:41:05;19.70;92.30
18694;DHT22;9477;51.414;10.362;2022-10-16T00:43:12;19.70;92.30
18694;DHT22;9477;51.414;10.362;2022-10-16T00:45:16;19.70;92.30
18694;DHT22;9477;51.414;10.362;2022-10-16T00:47:22;19.70;92.20
18694;DHT22;9477;51.414;10.362;2022-10-16T00:49:26;19.80;92.30
18694;DHT22;9477;51.414;10.362;2022-10-16T00:51:32;19.70;92.30
18694;DHT22;9477;51.414;10.362;2022-10-16T00:53:35;19.80;92.30
18694;DHT22;9477;51.414;10.362;2022-10-16T00:55:40;19.80;92.20
18694;DHT22;9477;51.414;10.362;2022-10-16T00:57:44;19.80;92.30
18694;DHT22;9477;51.414;10.362;2022-10-16T00:59:47;19.80;92.30
18694;DHT22;9477;51.414;10.362;2022-10-16T01:01:50;19.80;92.20
18694;DHT22;9477;51.414;10.362;2022-10-16T01:03:53;19.70;92.10
18694;DHT22;9477;51.414;10.362;2022-10-16T01:06:08;19.70;92.10
18694;DHT22;9477;51.414;10.362;2022-10-16T01:08:15;19.70;92.10
18694;DHT22;9477;51.414;10.362;2022-10-16T01:10:27;19.60;92.00
18694;DHT22;9477;51.414;10.362;2022-10-16T01:12:38;19.60;92.10
18694;DHT22;9477;51.414;10.362;2022-10-16T01:14:51;19.60;92.10
18694;DHT22;9477;51.414;10.362;2022-10-16T01:17:01;19.60;92.10
18694;DHT22;9477;51.414;10.362;2022-10-16T01:19:09;19.60;92.20
18694;DHT22;9477;51.414;10.362;2022-10-16T01:21:16;19.70;92.30
18694;DHT22;9477;51.414;10.362;2022-10-16T01:23:31;19.70;92.40
18694;DHT22;9477;51.414;10.362;2022-10-16T01:25:48;19.70;92.40
18694;DHT22;9477;51.414;10.362;2022-10-16T01:27:53;19.70;92.40
18694;DHT22;9477;51.414;10.362;2022-10-16T01:30:02;19.70;92.50
18694;DHT22;9477;51.414;10.362;2022-10-16T01:32:11;19.70;92.50
18694;DHT22;9477;51.414;10.362;2022-10-16T01:34:20;19.70;92.50
18694;DHT22;9477;51.414;10.362;2022-10-16T01:36:28;19.80;92.50
18694;DHT22;9477;51.414;10.362;2022-10-16T01:38:34;19.80;92.50
18694;DHT22;9477;51.414;10.362;2022-10-16T01:40:40;19.80;92.50
18694;DHT22;9477;51.414;10.362;2022-10-16T01:42:47;19.80;92.50
18694;DHT22;9477;51.414;10.362;2022-10-16T01:44:53;19.80;92.50
18694;DHT22;9477;51.414;10.362;2022-10-16T01:46:56;19.80;92.60
18694;DHT22;9477;51.414;10.362;2022-10-16T01:49:00;19.80;92.60
18694;DHT22;9477;51.414;10.362;2022-10-16T01:51:06;19.80;92.70
18694;DHT22;9477;51.414;10.362;2022-10-16T01:53:12;19.80;92.70
18694;DHT22;9477;51.414;10.362;2022-10-16T01:55:18;19.80;92.60
18694;DHT22;9477;51.414;10.362;2022-10-16T01:57:24;19.80;92.60
18694;DHT22;9477;51.414;10.362;2022-10-16T01:59:28;19.80;92.70
18694;DHT22;9477;51.414;10.362;2022-10-16T02:01:38;19.80;92.70
18694;DHT22;9477;51.414;10.362;2022-10-16T02:03:43;19.80;92.70
18694;DHT22;9477;51.414;10.362;2022-10-16T02:05:50;19.80;92.80
18694;DHT22;9477;51.414;10.362;2022-10-16T02:07:54;19.80;92.80
18694;DHT22;9477;51.414;10.362;2022-10-16T02:10:01;19.80;92.80
18694;DHT22;9477;51.414;10.362;2022-10-16T02:12:13;19.80;92.80
18694;DHT22;9477;51.414;10.362;2022-10-16T02:14:16;19.90;92.80
18694;DHT22;9477;51.414;10.362;2022-10-16T02:16:20;19.90;92.80
18694;DHT22;9477;51.414;10.362;2022-10-16T02:18:25;19.90;92.70
18694;DHT22;9477;51.414;10.362;2022-10-16T02:20:34;19.90;93.00
18694;DHT22;9477;51.414;10.362;2022-10-16T02:22:40;19.90;92.70
18694;DHT22;9477;51.414;10.362;2022-10-16T02:24:50;19.90;92.70
18694;DHT22;9477;51.414;10.362;2022-10-16T02:27:00;19.80;92.70
18694;DHT22;9477;51.414;10.362;2022-10-16T02:29:08;19.80;92.70
18694;DHT22;9477;51.414;10.362;2022-10-16T02:31:18;19.80;92.70
18694;DHT22;9477;51.414;10.362;2022-10-16T02:33:25;19.80;92.70
18694;DHT22;9477;51.414;10.362;2022-10-16T02:35:30;19.80;92.70
18694;DHT22;9477;51.414;10.362;2022-10-16T02:37:34;19.80;92.70
18694;DHT22;9477;51.414;10.362;2022-10-16T02:39:38;19.80;92.70
18694;DHT22;9477;51.414;10.362;2022-10-16T02:41:41;19.80;92.70
18694;DHT22;9477;51.414;10.362;2022-10-16T02:43:44;19.80;92.70
18694;DHT22;9477;51.414;10.362;2022-10-16T02:45:47;19.80;93.00
18694;DHT22;9477;51.414;10.362;2022-10-16T02:47:50;19.80;92.70
18694;DHT22;9477;51.414;10.362;2022-10-16T02:49:54;19.80;92.70
18694;DHT22;9477;51.414;10.362;2022-10-16T02:51:57;19.80;92.60
18694;DHT22;9477;51.414;10.362;2022-10-16T02:54:00;19.80;92.60
18694;DHT22;9477;51.414;10.362;2022-10-16T02:56:03;19.80;92.60
18694;DHT22;9477;51.414;10.362;2022-10-16T02:58:06;19.80;92.60
18694;DHT22;9477;51.414;10.362;2022-10-16T03:00:11;19.80;92.60
18694;DHT22;9477;51.414;10.362;2022-10-16T03:02:14;19.80;92.60
18694;DHT22;9477;51.414;10.362;2022-10-16T03:04:17;19.80;92.50
18694;DHT22;9477;51.414;10.362;2022-10-16T03:06:21;19.80;92.50
18694;DHT22;9477;51.414;10.362;2022-10-16T03:08:25;19.80;92.50
18694;DHT22;9477;51.414;10.362;2022-10-16T03:10:28;19.80;92.40
18694;DHT22;9477;51.414;10.362;2022-10-16T03:12:30;19.80;92.40
18694;DHT22;9477;51.414;10.362;2022-10-16T03:14:33;19.70;92.30
18694;DHT22;9477;51.414;10.362;2022-10-16T03:16:37;19.70;92.30
18694;DHT22;9477;51.414;10.362;2022-10-16T03:18:40;19.70;92.40
18694;DHT22;9477;51.414;10.362;2022-10-16T03:20:43;19.70;92.30
18694;DHT22;9477;51.414;10.362;2022-10-16T03:22:47;19.70;92.20
18694;DHT22;9477;51.414;10.362;2022-10-16T03:24:50;19.70;92.20
18694;DHT22;9477;51.414;10.362;2022-10-16T03:26:53;19.70;92.20
18694;DHT22;9477;51.414;10.362;2022-10-16T03:28:55;19.70;92.10
18694;DHT22;9477;51.414;10.362;2022-10-16T03:30:58;19.60;92.00
18694;DHT22;9477;51.414;10.362;2022-10-16T03:33:01;19.60;92.00
18694;DHT22;9477;51.414;10.362;2022-10-16T03:35:05;19.60;92.00
18694;DHT22;9477;51.414;10.362;2022-10-16T03:37:08;19.60;92.00
18694;DHT22;9477;51.414;10.362;2022-10-16T03:39:12;19.50;92.00
18694;DHT22;9477;51.414;10.362;2022-10-16T03:41:15;19.50;92.00
18694;DHT22;9477;51.414;10.362;2022-10-16T03:43:18;19.50;92.00
18694;DHT22;9477;51.414;10.362;2022-10-16T03:45:21;19.50;92.00
18694;DHT22;9477;51.414;10.362;2022-10-16T03:47:24;19.50;92.10
18694;DHT22;9477;51.414;10.362;2022-10-16T03:49:27;19.50;92.10
18694;DHT22;9477;51.414;10.362;2022-10-16T03:51:30;19.50;92.00
18694;DHT22;9477;51.414;10.362;2022-10-16T03:53:33;19.50;92.00
18694;DHT22;9477;51.414;10.362;2022-10-16T03:55:37;19.40;91.90
18694;DHT22;9477;51.414;10.362;2022-10-16T03:57:40;19.40;91.90
18694;DHT22;9477;51.414;10.362;2022-10-16T03:59:43;19.30;91.90
18694;DHT22;9477;51.414;10.362;2022-10-16T04:01:46;19.30;92.00
18694;DHT22;9477;51.414;10.362;2022-10-16T04:03:49;19.30;92.00
18694;DHT22;9477;51.414;10.362;2022-10-16T04:05:52;19.30;92.00
18694;DHT22;9477;51.414;10.362;2022-10-16T04:07:54;19.30;92.00
18694;DHT22;9477;51.414;10.362;2022-10-16T04:09:57;19.30;91.90
18694;DHT22;9477;51.414;10.362;2022-10-16T04:12:02;19.30;91.90
18694;DHT22;9477;51.414;10.362;2022-10-16T04:14:05;19.30;91.90
18694;DHT22;9477;51.414;10.362;2022-10-16T04:16:08;19.20;91.90
18694;DHT22;9477;51.414;10.362;2022-10-16T04:18:11;19.20;91.90
18694;DHT22;9477;51.414;10.362;2022-10-16T04:20:14;19.20;92.00
18694;DHT22;9477;51.414;10.362;2022-10-16T04:22:17;19.20;91.90
18694;DHT22;9477;51.414;10.362;2022-10-16T04:24:20;19.20;91.80
18694;DHT22;9477;51.414;10.362;2022-10-16T04:26:23;19.10;91.80
18694;DHT22;9477;51.414;10.362;2022-10-16T04:28:28;19.10;91.90
18694;DHT22;9477;51.414;10.362;2022-10-16T04:30:31;19.10;91.90
18694;DHT22;9477;51.414;10.362;2022-10-16T04:32:35;19.10;91.80
18694;DHT22;9477;51.414;10.362;2022-10-16T04:34:39;19.10;91.80
18694;DHT22;9477;51.414;10.362;2022-10-16T04:36:42;19.10;91.70
18694;DHT22;9477;51.414;10.362;2022-10-16T04:38:45;19.00;91.70
18694;DHT22;9477;51.414;10.362;2022-10-16T04:40:48;19.00;91.70
18694;DHT22;9477;51.414;10.362;2022-10-16T04:42:51;19.00;91.80
18694;DHT22;9477;51.414;10.362;2022-10-16T04:44:55;18.90;91.70
18694;DHT22;9477;51.414;10.362;2022-10-16T04:46:58;18.90;91.70
18694;DHT22;9477;51.414;10.362;2022-10-16T04:49:01;18.90;91.80
18694;DHT22;9477;51.414;10.362;2022-10-16T04:51:04;18.90;91.80
18694;DHT22;9477;51.414;10.362;2022-10-16T04:53:07;18.90;91.80
18694;DHT22;9477;51.414;10.362;2022-10-16T04:55:10;18.90;91.80
18694;DHT22;9477;51.414;10.362;2022-10-16T04:57:12;18.90;91.70
18694;DHT22;9477;51.414;10.362;2022-10-16T04:59:15;18.90;91.70
18694;DHT22;9477;51.414;10.362;2022-10-16T05:01:20;18.90;91.70
18694;DHT22;9477;51.414;10.362;2022-10-16T05:03:23;18.90;91.70
18694;DHT22;9477;51.414;10.362;2022-10-16T05:05:26;18.90;91.80
18694;DHT22;9477;51.414;10.362;2022-10-16T05:07:29;18.90;91.80
18694;DHT22;9477;51.414;10.362;2022-10-16T05:09:31;18.90;91.80
18694;DHT22;9477;51.414;10.362;2022-10-16T05:11:35;18.90;91.80
18694;DHT22;9477;51.414;10.362;2022-10-16T05:13:38;18.90;91.90
18694;DHT22;9477;51.414;10.362;2022-10-16T05:15:40;18.90;91.90
18694;DHT22;9477;51.414;10.362;2022-10-16T05:17:45;18.90;92.00
18694;DHT22;9477;51.414;10.362;2022-10-16T05:19:47;18.90;92.00
18694;DHT22;9477;51.414;10.362;2022-10-16T05:21:50;18.90;91.90
18694;DHT22;9477;51.414;10.362;2022-10-16T05:23:53;18.90;91.90
18694;DHT22;9477;51.414;10.362;2022-10-16T05:25:57;18.90;91.90
18694;DHT22;9477;51.414;10.362;2022-10-16T05:28:01;18.90;91.90
18694;DHT22;9477;51.414;10.362;2022-10-16T05:30:04;18.90;91.90
18694;DHT22;9477;51.414;10.362;2022-10-16T05:32:12;18.90;91.90
18694;DHT22;9477;51.414;10.362;2022-10-16T05:34:16;18.90;91.90
18694;DHT22;9477;51.414;10.362;2022-10-16T05:36:19;18.90;91.90
18694;DHT22;9477;51.414;10.362;2022-10-16T05:38:22;18.90;91.90
18694;DHT22;9477;51.414;10.362;2022-10-16T05:40:25;18.90;91.90
18694;DHT22;9477;51.414;10.362;2022-10-16T05:42:28;18.90;91.90
18694;DHT22;9477;51.414;10.362;2022-10-16T05:44:31;18.90;92.00
18694;DHT22;9477;51.414;10.362;2022-10-16T05:46:34;18.90;92.10
18694;DHT22;9477;51.414;10.362;2022-10-16T05:48:38;18.80;92.10
18694;DHT22;9477;51.414;10.362;2022-10-16T05:50:42;18.80;92.20
18694;DHT22;9477;51.414;10.362;2022-10-16T05:52:45;18.80;92.30
18694;DHT22;9477;51.414;10.362;2022-10-16T05:54:47;18.80;92.30
18694;DHT22;9477;51.414;10.362;2022-10-16T05:56:51;18.80;92.40
18694;DHT22;9477;51.414;10.362;2022-10-16T05:58:54;18.80;92.40
18694;DHT22;9477;51.414;10.362;2022-10-16T06:00:58;18.80;92.40
18694;DHT22;9477;51.414;10.362;2022-10-16T06:03:01;18.80;92.40
18694;DHT22;9477;51.414;10.362;2022-10-16T06:05:04;18.80;92.40
18694;DHT22;9477;51.414;10.362;2022-10-16T06:07:09;18.80;92.40
18694;DHT22;9477;51.414;10.362;2022-10-16T06:09:12;18.90;92.50
18694;DHT22;9477;51.414;10.362;2022-10-16T06:11:17;18.90;92.50
18694;DHT22;9477;51.414;10.362;2022-10-16T06:13:21;18.90;92.50
18694;DHT22;9477;51.414;10.362;2022-10-16T06:15:23;18.90;92.40
18694;DHT22;9477;51.414;10.362;2022-10-16T06:17:26;19.00;92.50
18694;DHT22;9477;51.414;10.362;2022-10-16T06:19:30;19.00;92.50
18694;DHT22;9477;51.414;10.362;2022-10-16T06:21:33;19.00;92.50
18694;DHT22;9477;51.414;10.362;2022-10-16T06:23:37;19.10;92.50
18694;DHT22;9477;51.414;10.362;2022-10-16T06:25:40;19.10;92.50
18694;DHT22;9477;51.414;10.362;2022-10-16T06:27:43;19.10;92.40
18694;DHT22;9477;51.414;10.362;2022-10-16T06:29:46;19.10;92.40
18694;DHT22;9477;51.414;10.362;2022-10-16T06:31:48;19.10;92.40
18694;DHT22;9477;51.414;10.362;2022-10-16T06:33:51;19.10;92.40
18694;DHT22;9477;51.414;10.362;2022-10-16T06:36:00;19.10;92.40
18694;DHT22;9477;51.414;10.362;2022-10-16T06:38:03;19.20;92.50
18694;DHT22;9477;51.414;10.362;2022-10-16T06:40:07;19.20;92.50
18694;DHT22;9477;51.414;10.362;2022-10-16T06:42:10;19.20;92.40
18694;DHT22;9477;51.414;10.362;2022-10-16T06:44:13;19.10;92.40
18694;DHT22;9477;51.414;10.362;2022-10-16T06:46:18;19.10;92.50
18694;DHT22;9477;51.414;10.362;2022-10-16T06:48:22;19.20;92.70
18694;DHT22;9477;51.414;10.362;2022-10-16T06:50:25;19.20;92.50
18694;DHT22;9477;51.414;10.362;2022-10-16T06:52:28;19.30;92.50
18694;DHT22;9477;51.414;10.362;2022-10-16T06:54:31;19.30;92.50
18694;DHT22;9477;51.414;10.362;2022-10-16T06:56:44;19.30;92.50
18694;DHT22;9477;51.414;10.362;2022-10-16T06:58:47;19.40;92.50
18694;DHT22;9477;51.414;10.362;2022-10-16T07:00:55;19.40;92.40
18694;DHT22;9477;51.414;10.362;2022-10-16T07:02:58;19.40;92.40
18694;DHT22;9477;51.414;10.362;2022-10-16T07:05:01;19.40;92.30
18694;DHT22;9477;51.414;10.362;2022-10-16T07:07:04;19.40;92.40
18694;DHT22;9477;51.414;10.362;2022-10-16T07:09:10;19.40;92.30
18694;DHT22;9477;51.414;10.362;2022-10-16T07:11:15;19.40;92.30
18694;DHT22;9477;51.414;10.362;2022-10-16T07:13:19;19.50;92.10
18694;DHT22;9477;51.414;10.362;2022-10-16T07:15:22;19.50;92.10
18694;DHT22;9477;51.414;10.362;2022-10-16T07:17:26;19.40;91.90
18694;DHT22;9477;51.414;10.362;2022-10-16T07:19:28;19.40;91.90
18694;DHT22;9477;51.414;10.362;2022-10-16T07:21:35;19.40;91.90
18694;DHT22;9477;51.414;10.362;2022-10-16T07:23:38;19.40;91.90
18694;DHT22;9477;51.414;10.362;2022-10-16T07:25:41;19.30;91.70
18694;DHT22;9477;51.414;10.362;2022-10-16T07:27:44;19.40;91.90
18694;DHT22;9477;51.414;10.362;2022-10-16T07:29:48;19.40;91.80
18694;DHT22;9477;51.414;10.362;2022-10-16T07:31:51;19.40;91.80
18694;DHT22;9477;51.414;10.362;2022-10-16T07:33:54;19.50;91.70
18694;DHT22;9477;51.414;10.362;2022-10-16T07:35:58;19.50;92.00
18694;DHT22;9477;51.414;10.362;2022-10-16T07:38:01;19.40;91.50
18694;DHT22;9477;51.414;10.362;2022-10-16T07:40:05;19.40;91.50
18694;DHT22;9477;51.414;10.362;2022-10-16T07:42:08;19.40;91.60
18694;DHT22;9477;51.414;10.362;2022-10-16T07:44:11;19.30;91.20
18694;DHT22;9477;51.414;10.362;2022-10-16T07:46:16;19.40;91.50
18694;DHT22;9477;51.414;10.362;2022-10-16T07:48:19;19.40;91.50
18694;DHT22;9477;51.414;10.362;2022-10-16T07:50:22;19.50;91.50
18694;DHT22;9477;51.414;10.362;2022-10-16T07:52:25;19.50;91.50
18694;DHT22;9477;51.414;10.362;2022-10-16T07:54:28;19.50;91.40
18694;DHT22;9477;51.414;10.362;2022-10-16T07:56:31;19.50;91.20
18694;DHT22;9477;51.414;10.362;2022-10-16T07:58:35;19.50;91.30
18694;DHT22;9477;51.414;10.362;2022-10-16T08:00:38;19.60;91.40
18694;DHT22;9477;51.414;10.362;2022-10-16T08:02:43;19.60;91.40
18694;DHT22;9477;51.414;10.362;2022-10-16T08:04:46;19.70;91.40
18694;DHT22;9477;51.414;10.362;2022-10-16T08:06:49;19.70;91.30
18694;DHT22;9477;51.414;10.362;2022-10-16T08:08:52;19.70;91.30
18694;DHT22;9477;51.414;10.362;2022-10-16T08:10:56;19.70;91.20
18694;DHT22;9477;51.414;10.362;2022-10-16T08:12:59;19.70;91.20
18694;DHT22;9477;51.414;10.362;2022-10-16T08:15:02;19.70;91.20
18694;DHT22;9477;51.414;10.362;2022-10-16T08:17:05;19.70;90.90
18694;DHT22;9477;51.414;10.362;2022-10-16T08:19:09;19.70;91.00
18694;DHT22;9477;51.414;10.362;2022-10-16T08:21:13;19.60;90.80
18694;DHT22;9477;51.414;10.362;2022-10-16T08:23:22;19.70;91.10
18694;DHT22;9477;51.414;10.362;2022-10-16T08:25:25;19.70;91.00
18694;DHT22;9477;51.414;10.362;2022-10-16T08:27:31;19.70;91.00
18694;DHT22;9477;51.414;10.362;2022-10-16T08:29:34;19.80;90.90
18694;DHT22;9477;51.414;10.362;2022-10-16T08:31:37;19.80;90.90
18694;DHT22;9477;51.414;10.362;2022-10-16T08:33:43;19.80;90.80
18694;DHT22;9477;51.414;10.362;2022-10-16T08:35:52;19.80;90.80
18694;DHT22;9477;51.414;10.362;2022-10-16T08:37:55;19.90;90.90
18694;DHT22;9477;51.414;10.362;2022-10-16T08:39:58;20.00;90.90
18694;DHT22;9477;51.414;10.362;2022-10-16T08:42:19;20.00;90.80
18694;DHT22;9477;51.414;10.362;2022-10-16T08:44:41;20.00;90.70
18694;DHT22;9477;51.414;10.362;2022-10-16T08:46:53;20.00;90.60
18694;DHT22;9477;51.414;10.362;2022-10-16T08:48:58;20.10;90.80
18694;DHT22;9477;51.414;10.362;2022-10-16T08:51:04;20.20;90.80
18694;DHT22;9477;51.414;10.362;2022-10-16T08:53:13;20.10;90.40
18694;DHT22;9477;51.414;10.362;2022-10-16T08:55:30;20.10;90.40
18694;DHT22;9477;51.414;10.362;2022-10-16T08:57:34;20.20;90.60
18694;DHT22;9477;51.414;10.362;2022-10-16T08:59:37;20.30;90.90
18694;DHT22;9477;51.414;10.362;2022-10-16T09:01:44;20.30;90.30
18694;DHT22;9477;51.414;10.362;2022-10-16T09:06:29;20.30;90.30
18694;DHT22;9477;51.414;10.362;2022-10-16T09:08:43;20.30;90.30
18694;DHT22;9477;51.414;10.362;2022-10-16T09:10:56;20.40;90.40
18694;DHT22;9477;51.414;10.362;2022-10-16T09:13:07;20.30;89.80
18694;DHT22;9477;51.414;10.362;2022-10-16T09:15:22;20.20;90.00
18694;DHT22;9477;51.414;10.362;2022-10-16T09:17:36;20.30;90.20
18694;DHT22;9477;51.414;10.362;2022-10-16T09:19:44;20.20;90.10
18694;DHT22;9477;51.414;10.362;2022-10-16T09:21:49;20.30;90.20
18694;DHT22;9477;51.414;10.362;2022-10-16T09:23:54;20.30;90.00
18694;DHT22;9477;51.414;10.362;2022-10-16T09:25:59;20.40;90.20
18694;DHT22;9477;51.414;10.362;2022-10-16T09:28:02;20.50;90.20
18694;DHT22;9477;51.414;10.362;2022-10-16T09:30:12;20.50;90.00
18694;DHT22;9477;51.414;10.362;2022-10-16T09:32:18;20.50;89.70
18694;DHT22;9477;51.414;10.362;2022-10-16T09:34:27;20.50;89.70
18694;DHT22;9477;51.414;10.362;2022-10-16T09:36:36;20.60;89.80
18694;DHT22;9477;51.414;10.362;2022-10-16T09:38:43;20.60;89.60
18694;DHT22;9477;51.414;10.362;2022-10-16T09:40:46;20.70;89.80
18694;DHT22;9477;51.414;10.362;2022-10-16T09:43:03;20.70;89.90
18694;DHT22;9477;51.414;10.362;2022-10-16T09:45:21;20.70;89.90
18694;DHT22;9477;51.414;10.362;2022-10-16T09:47:26;20.80;89.40
18694;DHT22;9477;51.414;10.362;2022-10-16T09:49:31;20.80;89.50
18694;DHT22;9477;51.414;10.362;2022-10-16T09:51:35;20.90;89.50
18694;DHT22;9477;51.414;10.362;2022-10-16T09:53:41;20.90;90.10
18694;DHT22;9477;51.414;10.362;2022-10-16T09:55:50;20.80;88.80
18694;DHT22;9477;51.414;10.362;2022-10-16T09:57:54;20.90;88.70
18694;DHT22;9477;51.414;10.362;2022-10-16T09:59:58;20.90;89.30
18694;DHT22;9477;51.414;10.362;2022-10-16T10:02:04;21.00;89.40
18694;DHT22;9477;51.414;10.362;2022-10-16T10:04:13;21.10;89.30
18694;DHT22;9477;51.414;10.362;2022-10-16T10:06:20;21.10;88.80
18694;DHT22;9477;51.414;10.362;2022-10-16T10:08:24;21.10;88.30
18694;DHT22;9477;51.414;10.362;2022-10-16T10:10:28;21.10;88.60
18694;DHT22;9477;51.414;10.362;2022-10-16T10:12:33;21.20;88.60
18694;DHT22;9477;51.414;10.362;2022-10-16T10:14:40;21.20;88.70
18694;DHT22;9477;51.414;10.362;2022-10-16T10:16:43;21.20;88.20
18694;DHT22;9477;51.414;10.362;2022-10-16T10:18:46;21.20;87.50
18694;DHT22;9477;51.414;10.362;2022-10-16T10:21:02;20.90;86.60
18694;DHT22;9477;51.414;10.362;2022-10-16T10:23:21;21.00;87.10
18694;DHT22;9477;51.414;10.362;2022-10-16T10:25:36;20.80;86.70
18694;DHT22;9477;51.414;10.362;2022-10-16T10:27:48;20.80;86.30
18694;DHT22;9477;51.414;10.362;2022-10-16T10:30:01;20.80;87.00
18694;DHT22;9477;51.414;10.362;2022-10-16T10:32:14;20.90;87.00
18694;DHT22;9477;51.414;10.362;2022-10-16T10:34:39;20.90;87.30
18694;DHT22;9477;51.414;10.362;2022-10-16T10:36:44;20.90;86.70
18694;DHT22;9477;51.414;10.362;2022-10-16T10:38:54;21.10;86.90
18694;DHT22;9477;51.414;10.362;2022-10-16T10:41:13;21.20;86.60
18694;DHT22;9477;51.414;10.362;2022-10-16T10:43:30;21.30;86.90
18694;DHT22;9477;51.414;10.362;2022-10-16T10:45:41;21.30;86.30
18694;DHT22;9477;51.414;10.362;2022-10-16T10:47:55;21.30;85.50
18694;DHT22;9477;51.414;10.362;2022-10-16T10:50:09;21.30;84.80
18694;DHT22;9477;51.414;10.362;2022-10-16T10:52:41;21.20;83.90
18694;DHT22;9477;51.414;10.362;2022-10-16T10:54:50;21.20;84.60
18694;DHT22;9477;51.414;10.362;2022-10-16T10:56:59;21.20;85.10
18694;DHT22;9477;51.414;10.362;2022-10-16T10:59:27;21.20;85.20
18694;DHT22;9477;51.414;10.362;2022-10-16T11:01:40;21.10;84.90
18694;DHT22;9477;51.414;10.362;2022-10-16T11:04:09;21.20;85.10
18694;DHT22;9477;51.414;10.362;2022-10-16T11:06:22;21.20;85.10
18694;DHT22;9477;51.414;10.362;2022-10-16T11:08:28;21.20;84.70
18694;DHT22;9477;51.414;10.362;2022-10-16T11:10:42;21.30;84.60
18694;DHT22;9477;51.414;10.362;2022-10-16T11:12:49;21.40;85.10
18694;DHT22;9477;51.414;10.362;2022-10-16T11:15:00;21.50;85.30
18694;DHT22;9477;51.414;10.362;2022-10-16T11:17:08;21.40;83.20
18694;DHT22;9477;51.414;10.362;2022-10-16T11:19:21;21.40;84.40
18694;DHT22;9477;51.414;10.362;2022-10-16T11:21:30;21.50;84.90
18694;DHT22;9477;51.414;10.362;2022-10-16T11:23:40;21.60;84.40
18694;DHT22;9477;51.414;10.362;2022-10-16T11:25:46;20.90;80.50
18694;DHT22;9477;51.414;10.362;2022-10-16T11:27:54;21.20;81.50
18694;DHT22;9477;51.414;10.362;2022-10-16T11:30:02;21.30;82.10
18694;DHT22;9477;51.414;10.362;2022-10-16T11:32:19;21.40;82.30
18694;DHT22;9477;51.414;10.362;2022-10-16T11:34:27;21.40;81.60
18694;DHT22;9477;51.414;10.362;2022-10-16T11:36:40;21.30;80.60
18694;DHT22;9477;51.414;10.362;2022-10-16T11:38:49;21.50;82.40
18694;DHT22;9477;51.414;10.362;2022-10-16T11:41:00;21.50;81.60
18694;DHT22;9477;51.414;10.362;2022-10-16T11:43:12;21.60;82.00
18694;DHT22;9477;51.414;10.362;2022-10-16T11:45:26;21.50;80.30
18694;DHT22;9477;51.414;10.362;2022-10-16T11:47:34;21.70;81.80
18694;DHT22;9477;51.414;10.362;2022-10-16T11:50:00;21.80;81.80
18694;DHT22;9477;51.414;10.362;2022-10-16T11:52:10;21.80;80.70
18694;DHT22;9477;51.414;10.362;2022-10-16T11:54:24;21.80;80.50
18694;DHT22;9477;51.414;10.362;2022-10-16T11:56:32;21.80;81.70
18694;DHT22;9477;51.414;10.362;2022-10-16T11:58:44;21.90;80.60
18694;DHT22;9477;51.414;10.362;2022-10-16T12:00:59;21.80;79.80
18694;DHT22;9477;51.414;10.362;2022-10-16T12:03:13;21.90;80.80
18694;DHT22;9477;51.414;10.362;2022-10-16T12:05:23;22.00;81.40
18694;DHT22;9477;51.414;10.362;2022-10-16T12:07:34;22.10;81.00
18694;DHT22;9477;51.414;10.362;2022-10-16T12:09:39;22.10;80.50
18694;DHT22;9477;51.414;10.362;2022-10-16T12:11:42;22.00;80.00
18694;DHT22;9477;51.414;10.362;2022-10-16T12:13:45;22.00;80.00
18694;DHT22;9477;51.414;10.362;2022-10-16T12:15:49;22.00;80.80
18694;DHT22;9477;51.414;10.362;2022-10-16T12:18:01;22.10;81.10
18694;DHT22;9477;51.414;10.362;2022-10-16T12:20:26;22.20;81.50
18694;DHT22;9477;51.414;10.362;2022-10-16T12:22:31;22.20;80.90
18694;DHT22;9477;51.414;10.362;2022-10-16T12:24:42;22.20;80.50
18694;DHT22;9477;51.414;10.362;2022-10-16T12:26:45;22.30;80.40
18694;DHT22;9477;51.414;10.362;2022-10-16T12:28:49;22.30;80.20
18694;DHT22;9477;51.414;10.362;2022-10-16T12:30:55;22.30;79.70
18694;DHT22;9477;51.414;10.362;2022-10-16T12:33:02;22.40;80.50
18694;DHT22;9477;51.414;10.362;2022-10-16T12:35:18;22.40;80.00
18694;DHT22;9477;51.414;10.362;2022-10-16T12:37:25;22.30;79.40
18694;DHT22;9477;51.414;10.362;2022-10-16T12:39:29;22.40;80.30
18694;DHT22;9477;51.414;10.362;2022-10-16T12:41:34;22.30;78.70
18694;DHT22;9477;51.414;10.362;2022-10-16T12:43:39;22.30;78.60
18694;DHT22;9477;51.414;10.362;2022-10-16T12:45:43;22.30;78.20
18694;DHT22;9477;51.414;10.362;2022-10-16T12:47:49;22.40;79.60
18694;DHT22;9477;51.414;10.362;2022-10-16T12:49:54;22.50;80.40
18694;DHT22;9477;51.414;10.362;2022-10-16T12:51:58;22.60;79.30
18694;DHT22;9477;51.414;10.362;2022-10-16T12:54:02;22.70;79.80
18694;DHT22;9477;51.414;10.362;2022-10-16T12:56:12;22.70;78.90
18694;DHT22;9477;51.414;10.362;2022-10-16T12:58:28;22.70;78.30
18694;DHT22;9477;51.414;10.362;2022-10-16T13:00:44;22.40;76.50
18694;DHT22;9477;51.414;10.362;2022-10-16T13:02:56;22.40;78.00
18694;DHT22;9477;51.414;10.362;2022-10-16T13:05:19;22.50;78.10
18694;DHT22;9477;51.414;10.362;2022-10-16T13:07:47;22.70;78.00
18694;DHT22;9477;51.414;10.362;2022-10-16T13:10:01;22.80;77.60
18694;DHT22;9477;51.414;10.362;2022-10-16T13:12:20;22.90;77.50
18694;DHT22;9477;51.414;10.362;2022-10-16T13:17:12;22.90;78.10
18694;DHT22;9477;51.414;10.362;2022-10-16T13:19:24;22.90;77.30
18694;DHT22;9477;51.414;10.362;2022-10-16T13:21:41;23.00;77.60
18694;DHT22;9477;51.414;10.362;2022-10-16T13:23:51;23.10;77.30